sensor_id;sensor_type;location;lat;lon;timestamp;P1;durP1;ratioP1;P2;durP2;ratioP2
4519;SDS011;2272;49.226;8.108;2023-12-20T00:01:27;1.00;;;1.00;;
4519;SDS011;2272;49.226;8.108;2023-12-20T00:03:54;1.07;;;1.07;;
4519;SDS011;2272;49.226;8.108;2023-12-20T00:06:20;1.00;;;0.97;;
4519;SDS011;2272;49.226;8.108;2023-12-20T00:08:47;0.90;;;0.90;;
4519;SDS011;2272;49.226;8.108;2023-12-20T00:11:15;2.47;;;1.20;;
4519;SDS011;2272;49.226;8.108;2023-12-20T00:13:42;0.77;;;0.77;;
4519;SDS011;2272;49.226;8.108;2023-12-20T00:16:09;1.57;;;0.80;;
4519;SDS011;2272;49.226;8.108;2023-12-20T00:18:35;0.87;;;0.87;;
4519;SDS011;2272;49.226;8.108;2023-12-20T00:21:02;0.60;;;0.60;;
4519;SDS011;2272;49.226;8.108;2023-12-20T00:23:29;0.70;;;0.70;;
4519;SDS011;2272;49.226;8.108;2023-12-20T00:25:56;0.90;;;0.90;;
4519;SDS011;2272;49.226;8.108;2023-12-20T00:28:24;0.70;;;0.70;;
4519;SDS011;2272;49.226;8.108;2023-12-20T00:30:51;0.80;;;0.80;;
4519;SDS011;2272;49.226;8.108;2023-12-20T00:33:17;0.60;;;0.60;;
4519;SDS011;2272;49.226;8.108;2023-12-20T00:35:44;0.60;;;0.60;;
4519;SDS011;2272;49.226;8.108;2023-12-20T00:38:11;0.70;;;0.70;;
4519;SDS011;2272;49.226;8.108;2023-12-20T00:40:37;0.77;;;0.77;;
4519;SDS011;2272;49.226;8.108;2023-12-20T00:43:04;0.83;;;0.83;;
4519;SDS011;2272;49.226;8.108;2023-12-20T00:45:32;0.60;;;0.60;;
4519;SDS011;2272;49.226;8.108;2023-12-20T00:47:59;0.63;;;0.63;;
4519;SDS011;2272;49.226;8.108;2023-12-20T00:50:26;0.70;;;0.70;;
4519;SDS011;2272;49.226;8.108;2023-12-20T00:52:52;0.70;;;0.70;;
4519;SDS011;2272;49.226;8.108;2023-12-20T00:55:19;0.70;;;0.70;;
4519;SDS011;2272;49.226;8.108;2023-12-20T00:57:46;0.60;;;0.60;;
4519;SDS011;2272;49.226;8.108;2023-12-20T01:00:13;0.70;;;0.50;;
4519;SDS011;2272;49.226;8.108;2023-12-20T01:02:42;0.70;;;0.70;;
4519;SDS011;2272;49.226;8.108;2023-12-20T01:05:08;0.70;;;0.70;;
4519;SDS011;2272;49.226;8.108;2023-12-20T01:07:35;0.60;;;0.60;;
4519;SDS011;2272;49.226;8.108;2023-12-20T01:10:02;0.70;;;0.70;;
4519;SDS011;2272;49.226;8.108;2023-12-20T01:12:29;1.43;;;0.80;;
4519;SDS011;2272;49.226;8.108;2023-12-20T01:14:55;0.57;;;0.57;;
4519;SDS011;2272;49.226;8.108;2023-12-20T01:17:23;1.60;;;0.60;;
4519;SDS011;2272;49.226;8.108;2023-12-20T01:19:51;0.67;;;0.67;;
4519;SDS011;2272;49.226;8.108;2023-12-20T01:22:18;0.50;;;0.50;;
4519;SDS011;2272;49.226;8.108;2023-12-20T01:24:45;0.53;;;0.53;;
4519;SDS011;2272;49.226;8.108;2023-12-20T01:27:11;0.60;;;0.60;;
4519;SDS011;2272;49.226;8.108;2023-12-20T01:29:38;0.80;;;0.80;;
4519;SDS011;2272;49.226;8.108;2023-12-20T01:32:05;0.63;;;0.63;;
4519;SDS011;2272;49.226;8.108;2023-12-20T01:34:32;0.60;;;0.60;;
4519;SDS011;2272;49.226;8.108;2023-12-20T01:37:00;0.93;;;0.70;;
4519;SDS011;2272;49.226;8.108;2023-12-20T01:39:27;2.60;;;1.70;;
4519;SDS011;2272;49.226;8.108;2023-12-20T01:41:54;1.87;;;1.33;;
4519;SDS011;2272;49.226;8.108;2023-12-20T01:44:21;1.00;;;1.00;;
4519;SDS011;2272;49.226;8.108;2023-12-20T01:46:47;0.70;;;0.57;;
4519;SDS011;2272;49.226;8.108;2023-12-20T01:49:14;0.90;;;0.90;;
4519;SDS011;2272;49.226;8.108;2023-12-20T01:51:41;1.10;;;0.80;;
4519;SDS011;2272;49.226;8.108;2023-12-20T01:54:10;0.70;;;0.70;;
4519;SDS011;2272;49.226;8.108;2023-12-20T01:56:37;1.13;;;0.80;;
4519;SDS011;2272;49.226;8.108;2023-12-20T01:59:04;1.33;;;0.50;;
4519;SDS011;2272;49.226;8.108;2023-12-20T02:01:32;0.70;;;0.70;;
4519;SDS011;2272;49.226;8.108;2023-12-20T02:03:59;2.10;;;0.87;;
4519;SDS011;2272;49.226;8.108;2023-12-20T02:06:26;0.77;;;0.77;;
4519;SDS011;2272;49.226;8.108;2023-12-20T02:08:56;0.80;;;0.80;;
4519;SDS011;2272;49.226;8.108;2023-12-20T02:11:25;0.60;;;0.60;;
4519;SDS011;2272;49.226;8.108;2023-12-20T02:13:51;0.70;;;0.70;;
4519;SDS011;2272;49.226;8.108;2023-12-20T02:16:19;1.30;;;1.20;;
4519;SDS011;2272;49.226;8.108;2023-12-20T02:18:45;0.70;;;0.70;;
4519;SDS011;2272;49.226;8.108;2023-12-20T02:21:12;0.70;;;0.70;;
4519;SDS011;2272;49.226;8.108;2023-12-20T02:23:40;0.70;;;0.70;;
4519;SDS011;2272;49.226;8.108;2023-12-20T02:26:07;0.70;;;0.50;;
4519;SDS011;2272;49.226;8.108;2023-12-20T02:28:34;0.80;;;0.73;;
4519;SDS011;2272;49.226;8.108;2023-12-20T02:31:01;0.70;;;0.70;;
4519;SDS011;2272;49.226;8.108;2023-12-20T02:33:28;0.60;;;0.60;;
4519;SDS011;2272;49.226;8.108;2023-12-20T02:35:55;0.73;;;0.73;;
4519;SDS011;2272;49.226;8.108;2023-12-20T02:38:21;0.90;;;0.90;;
4519;SDS011;2272;49.226;8.108;2023-12-20T02:40:49;4.00;;;0.67;;
4519;SDS011;2272;49.226;8.108;2023-12-20T02:43:16;2.10;;;1.13;;
4519;SDS011;2272;49.226;8.108;2023-12-20T02:45:43;0.73;;;0.73;;
4519;SDS011;2272;49.226;8.108;2023-12-20T02:48:10;0.80;;;0.80;;
4519;SDS011;2272;49.226;8.108;2023-12-20T02:50:36;0.73;;;0.73;;
4519;SDS011;2272;49.226;8.108;2023-12-20T02:53:03;0.60;;;0.60;;
4519;SDS011;2272;49.226;8.108;2023-12-20T02:55:30;2.10;;;0.80;;
4519;SDS011;2272;49.226;8.108;2023-12-20T02:57:58;0.80;;;0.80;;
4519;SDS011;2272;49.226;8.108;2023-12-20T03:00:25;0.80;;;0.80;;
4519;SDS011;2272;49.226;8.108;2023-12-20T03:02:51;0.70;;;0.70;;
4519;SDS011;2272;49.226;8.108;2023-12-20T03:05:18;0.60;;;0.60;;
4519;SDS011;2272;49.226;8.108;2023-12-20T03:07:45;1.73;;;0.70;;
4519;SDS011;2272;49.226;8.108;2023-12-20T03:10:12;1.73;;;1.00;;
4519;SDS011;2272;49.226;8.108;2023-12-20T03:12:39;0.77;;;0.77;;
4519;SDS011;2272;49.226;8.108;2023-12-20T03:15:07;1.00;;;1.00;;
4519;SDS011;2272;49.226;8.108;2023-12-20T03:17:35;0.77;;;0.77;;
4519;SDS011;2272;49.226;8.108;2023-12-20T03:20:01;1.00;;;1.00;;
4519;SDS011;2272;49.226;8.108;2023-12-20T03:22:28;0.70;;;0.70;;
4519;SDS011;2272;49.226;8.108;2023-12-20T03:24:55;1.30;;;1.00;;
4519;SDS011;2272;49.226;8.108;2023-12-20T03:27:22;1.10;;;1.10;;
4519;SDS011;2272;49.226;8.108;2023-12-20T03:29:48;1.10;;;1.10;;
4519;SDS011;2272;49.226;8.108;2023-12-20T03:32:16;1.00;;;1.00;;
4519;SDS011;2272;49.226;8.108;2023-12-20T03:34:43;0.90;;;0.90;;
4519;SDS011;2272;49.226;8.108;2023-12-20T03:37:09;1.10;;;1.10;;
4519;SDS011;2272;49.226;8.108;2023-12-20T03:39:35;2.63;;;1.20;;
4519;SDS011;2272;49.226;8.108;2023-12-20T03:42:03;2.40;;;1.60;;
4519;SDS011;2272;49.226;8.108;2023-12-20T03:44:30;1.13;;;1.13;;
4519;SDS011;2272;49.226;8.108;2023-12-20T03:46:56;1.20;;;1.20;;
4519;SDS011;2272;49.226;8.108;2023-12-20T03:49:24;1.43;;;1.43;;
4519;SDS011;2272;49.226;8.108;2023-12-20T03:51:51;1.47;;;1.47;;
4519;SDS011;2272;49.226;8.108;2023-12-20T03:54:18;1.30;;;1.30;;
4519;SDS011;2272;49.226;8.108;2023-12-20T03:56:44;1.63;;;1.63;;
4519;SDS011;2272;49.226;8.108;2023-12-20T03:59:11;1.47;;;1.47;;
4519;SDS011;2272;49.226;8.108;2023-12-20T04:01:38;2.00;;;1.90;;
4519;SDS011;2272;49.226;8.108;2023-12-20T04:04:04;1.47;;;1.47;;
4519;SDS011;2272;49.226;8.108;2023-12-20T04:06:32;1.40;;;1.40;;
4519;SDS011;2272;49.226;8.108;2023-12-20T04:08:59;1.60;;;1.50;;
4519;SDS011;2272;49.226;8.108;2023-12-20T04:11:26;1.87;;;1.73;;
4519;SDS011;2272;49.226;8.108;2023-12-20T04:13:52;1.97;;;1.87;;
4519;SDS011;2272;49.226;8.108;2023-12-20T04:16:19;2.73;;;2.53;;
4519;SDS011;2272;49.226;8.108;2023-12-20T04:18:46;2.93;;;2.73;;
4519;SDS011;2272;49.226;8.108;2023-12-20T04:21:13;2.30;;;2.20;;
4519;SDS011;2272;49.226;8.108;2023-12-20T04:23:41;1.70;;;1.70;;
4519;SDS011;2272;49.226;8.108;2023-12-20T04:26:07;2.00;;;1.90;;
4519;SDS011;2272;49.226;8.108;2023-12-20T04:28:34;2.30;;;2.20;;
4519;SDS011;2272;49.226;8.108;2023-12-20T04:31:01;2.13;;;2.13;;
4519;SDS011;2272;49.226;8.108;2023-12-20T04:33:27;7.30;;;2.17;;
4519;SDS011;2272;49.226;8.108;2023-12-20T04:35:54;2.17;;;2.07;;
4519;SDS011;2272;49.226;8.108;2023-12-20T04:38:22;2.43;;;2.33;;
4519;SDS011;2272;49.226;8.108;2023-12-20T04:40:50;2.43;;;2.30;;
4519;SDS011;2272;49.226;8.108;2023-12-20T04:43:17;2.33;;;2.23;;
4519;SDS011;2272;49.226;8.108;2023-12-20T04:45:44;2.17;;;2.07;;
4519;SDS011;2272;49.226;8.108;2023-12-20T04:48:10;2.83;;;2.63;;
4519;SDS011;2272;49.226;8.108;2023-12-20T04:50:37;2.70;;;2.60;;
4519;SDS011;2272;49.226;8.108;2023-12-20T04:53:04;2.83;;;2.73;;
4519;SDS011;2272;49.226;8.108;2023-12-20T04:55:31;3.40;;;3.10;;
4519;SDS011;2272;49.226;8.108;2023-12-20T04:57:59;3.10;;;2.90;;
4519;SDS011;2272;49.226;8.108;2023-12-20T05:00:26;3.63;;;3.40;;
4519;SDS011;2272;49.226;8.108;2023-12-20T05:02:52;3.33;;;3.13;;
4519;SDS011;2272;49.226;8.108;2023-12-20T05:05:20;3.30;;;3.20;;
4519;SDS011;2272;49.226;8.108;2023-12-20T05:07:47;6.10;;;3.30;;
4519;SDS011;2272;49.226;8.108;2023-12-20T05:10:13;3.17;;;3.07;;
4519;SDS011;2272;49.226;8.108;2023-12-20T05:12:40;3.37;;;3.17;;
4519;SDS011;2272;49.226;8.108;2023-12-20T05:15:09;3.10;;;2.90;;
4519;SDS011;2272;49.226;8.108;2023-12-20T05:17:35;3.30;;;3.10;;
4519;SDS011;2272;49.226;8.108;2023-12-20T05:20:02;3.00;;;2.80;;
4519;SDS011;2272;49.226;8.108;2023-12-20T05:22:30;2.97;;;2.87;;
4519;SDS011;2272;49.226;8.108;2023-12-20T05:24:56;3.23;;;2.90;;
4519;SDS011;2272;49.226;8.108;2023-12-20T05:27:23;3.30;;;3.20;;
4519;SDS011;2272;49.226;8.108;2023-12-20T05:29:50;2.80;;;2.70;;
4519;SDS011;2272;49.226;8.108;2023-12-20T05:32:18;3.27;;;3.17;;
4519;SDS011;2272;49.226;8.108;2023-12-20T05:34:44;3.30;;;3.20;;
4519;SDS011;2272;49.226;8.108;2023-12-20T05:37:11;2.80;;;2.70;;
4519;SDS011;2272;49.226;8.108;2023-12-20T05:39:38;3.60;;;3.30;;
4519;SDS011;2272;49.226;8.108;2023-12-20T05:42:04;3.20;;;3.10;;
4519;SDS011;2272;49.226;8.108;2023-12-20T05:44:31;3.40;;;3.30;;
4519;SDS011;2272;49.226;8.108;2023-12-20T05:46:58;3.30;;;3.10;;
4519;SDS011;2272;49.226;8.108;2023-12-20T05:49:26;3.97;;;3.77;;
4519;SDS011;2272;49.226;8.108;2023-12-20T05:51:53;3.77;;;3.20;;
4519;SDS011;2272;49.226;8.108;2023-12-20T05:54:20;5.07;;;4.77;;
4519;SDS011;2272;49.226;8.108;2023-12-20T05:56:47;13.73;;;8.50;;
4519;SDS011;2272;49.226;8.108;2023-12-20T05:59:13;22.27;;;13.73;;
4519;SDS011;2272;49.226;8.108;2023-12-20T06:01:40;22.50;;;13.40;;
4519;SDS011;2272;49.226;8.108;2023-12-20T06:04:07;16.10;;;11.60;;
4519;SDS011;2272;49.226;8.108;2023-12-20T06:06:35;6.60;;;6.00;;
4519;SDS011;2272;49.226;8.108;2023-12-20T06:09:07;4.20;;;3.93;;
4519;SDS011;2272;49.226;8.108;2023-12-20T06:11:33;4.13;;;3.93;;
4519;SDS011;2272;49.226;8.108;2023-12-20T06:14:00;7.17;;;5.60;;
4519;SDS011;2272;49.226;8.108;2023-12-20T06:16:27;13.43;;;8.97;;
4519;SDS011;2272;49.226;8.108;2023-12-20T06:18:53;5.90;;;5.30;;
4519;SDS011;2272;49.226;8.108;2023-12-20T06:21:20;5.27;;;4.50;;
4519;SDS011;2272;49.226;8.108;2023-12-20T06:23:48;4.40;;;4.10;;
4519;SDS011;2272;49.226;8.108;2023-12-20T06:26:15;3.63;;;3.40;;
4519;SDS011;2272;49.226;8.108;2023-12-20T06:28:41;4.00;;;3.70;;
4519;SDS011;2272;49.226;8.108;2023-12-20T06:31:08;4.10;;;3.77;;
4519;SDS011;2272;49.226;8.108;2023-12-20T06:33:35;3.33;;;3.03;;
4519;SDS011;2272;49.226;8.108;2023-12-20T06:36:02;3.00;;;2.90;;
4519;SDS011;2272;49.226;8.108;2023-12-20T06:38:29;3.43;;;3.13;;
4519;SDS011;2272;49.226;8.108;2023-12-20T06:40:57;3.47;;;3.27;;
4519;SDS011;2272;49.226;8.108;2023-12-20T06:43:24;5.33;;;4.60;;
4519;SDS011;2272;49.226;8.108;2023-12-20T06:45:51;4.60;;;4.20;;
4519;SDS011;2272;49.226;8.108;2023-12-20T06:48:17;5.13;;;4.67;;
4519;SDS011;2272;49.226;8.108;2023-12-20T06:50:44;11.87;;;5.70;;
4519;SDS011;2272;49.226;8.108;2023-12-20T06:53:11;3.70;;;3.00;;
4519;SDS011;2272;49.226;8.108;2023-12-20T06:55:37;1.80;;;1.70;;
4519;SDS011;2272;49.226;8.108;2023-12-20T06:58:05;9.33;;;4.17;;
4519;SDS011;2272;49.226;8.108;2023-12-20T07:00:32;4.80;;;4.30;;
4519;SDS011;2272;49.226;8.108;2023-12-20T07:02:59;6.33;;;4.33;;
4519;SDS011;2272;49.226;8.108;2023-12-20T07:05:26;5.00;;;2.60;;
4519;SDS011;2272;49.226;8.108;2023-12-20T07:07:53;23.67;;;15.10;;
4519;SDS011;2272;49.226;8.108;2023-12-20T07:10:19;31.70;;;21.40;;
4519;SDS011;2272;49.226;8.108;2023-12-20T07:12:46;36.20;;;24.03;;
4519;SDS011;2272;49.226;8.108;2023-12-20T07:15:15;39.63;;;24.50;;
4519;SDS011;2272;49.226;8.108;2023-12-20T07:17:41;27.40;;;19.63;;
4519;SDS011;2272;49.226;8.108;2023-12-20T07:20:09;14.23;;;9.20;;
4519;SDS011;2272;49.226;8.108;2023-12-20T07:22:36;5.53;;;4.80;;
4519;SDS011;2272;49.226;8.108;2023-12-20T07:25:03;5.43;;;3.60;;
4519;SDS011;2272;49.226;8.108;2023-12-20T07:27:30;3.33;;;3.00;;
4519;SDS011;2272;49.226;8.108;2023-12-20T07:29:57;3.03;;;2.83;;
4519;SDS011;2272;49.226;8.108;2023-12-20T07:32:25;4.07;;;3.10;;
4519;SDS011;2272;49.226;8.108;2023-12-20T07:34:52;2.67;;;2.57;;
4519;SDS011;2272;49.226;8.108;2023-12-20T07:37:19;3.80;;;3.50;;
4519;SDS011;2272;49.226;8.108;2023-12-20T07:39:46;4.20;;;3.13;;
4519;SDS011;2272;49.226;8.108;2023-12-20T07:42:13;3.40;;;3.10;;
4519;SDS011;2272;49.226;8.108;2023-12-20T07:44:39;4.63;;;3.90;;
4519;SDS011;2272;49.226;8.108;2023-12-20T07:47:06;5.80;;;4.23;;
4519;SDS011;2272;49.226;8.108;2023-12-20T07:49:34;4.50;;;4.10;;
4519;SDS011;2272;49.226;8.108;2023-12-20T07:52:01;4.43;;;4.03;;
4519;SDS011;2272;49.226;8.108;2023-12-20T07:54:27;4.70;;;4.30;;
4519;SDS011;2272;49.226;8.108;2023-12-20T07:56:55;6.63;;;5.73;;
4519;SDS011;2272;49.226;8.108;2023-12-20T07:59:20;13.00;;;8.20;;
4519;SDS011;2272;49.226;8.108;2023-12-20T08:01:47;6.00;;;5.40;;
4519;SDS011;2272;49.226;8.108;2023-12-20T08:04:14;5.80;;;4.90;;
4519;SDS011;2272;49.226;8.108;2023-12-20T08:06:42;12.03;;;6.00;;
4519;SDS011;2272;49.226;8.108;2023-12-20T08:09:08;8.33;;;3.70;;
4519;SDS011;2272;49.226;8.108;2023-12-20T08:11:35;7.93;;;4.07;;
4519;SDS011;2272;49.226;8.108;2023-12-20T08:14:02;4.90;;;4.50;;
4519;SDS011;2272;49.226;8.108;2023-12-20T08:16:28;5.10;;;4.07;;
4519;SDS011;2272;49.226;8.108;2023-12-20T08:18:55;10.90;;;5.30;;
4519;SDS011;2272;49.226;8.108;2023-12-20T08:21:22;5.47;;;3.67;;
4519;SDS011;2272;49.226;8.108;2023-12-20T08:23:50;4.00;;;3.53;;
4519;SDS011;2272;49.226;8.108;2023-12-20T08:26:18;10.10;;;3.60;;
4519;SDS011;2272;49.226;8.108;2023-12-20T08:28:46;5.63;;;3.53;;
4519;SDS011;2272;49.226;8.108;2023-12-20T08:31:14;5.53;;;4.13;;
4519;SDS011;2272;49.226;8.108;2023-12-20T08:33:41;6.70;;;3.77;;
4519;SDS011;2272;49.226;8.108;2023-12-20T08:36:09;13.07;;;3.57;;
4519;SDS011;2272;49.226;8.108;2023-12-20T08:38:35;5.10;;;3.10;;
4519;SDS011;2272;49.226;8.108;2023-12-20T08:41:04;5.03;;;2.90;;
4519;SDS011;2272;49.226;8.108;2023-12-20T08:43:31;7.90;;;3.50;;
4519;SDS011;2272;49.226;8.108;2023-12-20T08:45:57;6.57;;;3.40;;
4519;SDS011;2272;49.226;8.108;2023-12-20T08:48:24;5.10;;;2.40;;
4519;SDS011;2272;49.226;8.108;2023-12-20T08:50:51;3.17;;;2.20;;
4519;SDS011;2272;49.226;8.108;2023-12-20T08:53:17;10.87;;;3.47;;
4519;SDS011;2272;49.226;8.108;2023-12-20T08:55:46;6.10;;;3.23;;
4519;SDS011;2272;49.226;8.108;2023-12-20T08:58:15;7.03;;;3.73;;
4519;SDS011;2272;49.226;8.108;2023-12-20T09:00:42;3.17;;;2.87;;
4519;SDS011;2272;49.226;8.108;2023-12-20T09:03:08;2.63;;;2.43;;
4519;SDS011;2272;49.226;8.108;2023-12-20T09:05:35;7.47;;;3.07;;
4519;SDS011;2272;49.226;8.108;2023-12-20T09:08:02;14.23;;;3.07;;
4519;SDS011;2272;49.226;8.108;2023-12-20T09:10:29;6.20;;;2.30;;
4519;SDS011;2272;49.226;8.108;2023-12-20T09:12:56;4.70;;;3.70;;
4519;SDS011;2272;49.226;8.108;2023-12-20T09:15:24;3.33;;;2.30;;
4519;SDS011;2272;49.226;8.108;2023-12-20T09:17:51;3.67;;;2.47;;
4519;SDS011;2272;49.226;8.108;2023-12-20T09:20:18;4.00;;;2.10;;
4519;SDS011;2272;49.226;8.108;2023-12-20T09:22:45;11.80;;;2.20;;
4519;SDS011;2272;49.226;8.108;2023-12-20T09:25:12;5.13;;;2.77;;
4519;SDS011;2272;49.226;8.108;2023-12-20T09:27:40;15.83;;;3.30;;
4519;SDS011;2272;49.226;8.108;2023-12-20T09:30:07;4.73;;;2.40;;
4519;SDS011;2272;49.226;8.108;2023-12-20T09:32:36;7.27;;;3.13;;
4519;SDS011;2272;49.226;8.108;2023-12-20T09:35:03;6.57;;;3.53;;
4519;SDS011;2272;49.226;8.108;2023-12-20T09:37:30;11.53;;;4.90;;
4519;SDS011;2272;49.226;8.108;2023-12-20T09:39:57;10.80;;;3.73;;
4519;SDS011;2272;49.226;8.108;2023-12-20T09:42:24;5.30;;;3.17;;
4519;SDS011;2272;49.226;8.108;2023-12-20T09:44:59;12.73;;;5.37;;
4519;SDS011;2272;49.226;8.108;2023-12-20T09:47:28;13.00;;;4.53;;
4519;SDS011;2272;49.226;8.108;2023-12-20T09:49:57;6.97;;;5.47;;
4519;SDS011;2272;49.226;8.108;2023-12-20T09:52:23;6.50;;;4.37;;
4519;SDS011;2272;49.226;8.108;2023-12-20T09:54:50;7.37;;;4.90;;
4519;SDS011;2272;49.226;8.108;2023-12-20T09:57:20;12.93;;;5.93;;
4519;SDS011;2272;49.226;8.108;2023-12-20T09:59:46;16.67;;;5.80;;
4519;SDS011;2272;49.226;8.108;2023-12-20T10:02:13;8.10;;;4.77;;
4519;SDS011;2272;49.226;8.108;2023-12-20T10:04:41;14.60;;;5.60;;
4519;SDS011;2272;49.226;8.108;2023-12-20T10:07:14;14.80;;;7.57;;
4519;SDS011;2272;49.226;8.108;2023-12-20T10:09:41;11.23;;;5.20;;
4519;SDS011;2272;49.226;8.108;2023-12-20T10:12:08;16.20;;;6.93;;
4519;SDS011;2272;49.226;8.108;2023-12-20T10:14:35;8.43;;;4.23;;
4519;SDS011;2272;49.226;8.108;2023-12-20T10:17:02;24.50;;;6.40;;
4519;SDS011;2272;49.226;8.108;2023-12-20T10:19:29;7.83;;;4.77;;
4519;SDS011;2272;49.226;8.108;2023-12-20T10:21:57;11.57;;;7.07;;
4519;SDS011;2272;49.226;8.108;2023-12-20T10:24:27;8.83;;;4.87;;
4519;SDS011;2272;49.226;8.108;2023-12-20T10:27:01;11.23;;;6.30;;
4519;SDS011;2272;49.226;8.108;2023-12-20T10:29:31;15.17;;;4.80;;
4519;SDS011;2272;49.226;8.108;2023-12-20T10:31:58;8.93;;;4.17;;
4519;SDS011;2272;49.226;8.108;2023-12-20T10:34:25;7.20;;;4.57;;
4519;SDS011;2272;49.226;8.108;2023-12-20T10:36:52;19.97;;;5.53;;
4519;SDS011;2272;49.226;8.108;2023-12-20T10:39:19;10.20;;;6.27;;
4519;SDS011;2272;49.226;8.108;2023-12-20T10:41:48;14.33;;;6.37;;
4519;SDS011;2272;49.226;8.108;2023-12-20T10:44:15;25.43;;;7.83;;
4519;SDS011;2272;49.226;8.108;2023-12-20T10:46:42;8.70;;;4.83;;
4519;SDS011;2272;49.226;8.108;2023-12-20T10:49:16;28.07;;;5.40;;
4519;SDS011;2272;49.226;8.108;2023-12-20T10:51:44;9.70;;;5.47;;
4519;SDS011;2272;49.226;8.108;2023-12-20T10:54:13;11.40;;;5.43;;
4519;SDS011;2272;49.226;8.108;2023-12-20T10:56:40;7.90;;;4.30;;
4519;SDS011;2272;49.226;8.108;2023-12-20T10:59:08;19.23;;;5.50;;
4519;SDS011;2272;49.226;8.108;2023-12-20T11:01:37;16.17;;;7.57;;
4519;SDS011;2272;49.226;8.108;2023-12-20T11:04:06;10.23;;;6.17;;
4519;SDS011;2272;49.226;8.108;2023-12-20T11:06:40;19.57;;;7.77;;
4519;SDS011;2272;49.226;8.108;2023-12-20T11:09:14;18.20;;;6.30;;
4519;SDS011;2272;49.226;8.108;2023-12-20T11:11:51;20.80;;;7.20;;
4519;SDS011;2272;49.226;8.108;2023-12-20T11:14:27;18.00;;;5.13;;
4519;SDS011;2272;49.226;8.108;2023-12-20T11:17:06;12.87;;;5.30;;
4519;SDS011;2272;49.226;8.108;2023-12-20T11:19:35;31.60;;;4.13;;
4519;SDS011;2272;49.226;8.108;2023-12-20T11:22:03;7.13;;;4.60;;
4519;SDS011;2272;49.226;8.108;2023-12-20T11:24:31;18.57;;;9.57;;
4519;SDS011;2272;49.226;8.108;2023-12-20T11:26:59;13.90;;;5.40;;
4519;SDS011;2272;49.226;8.108;2023-12-20T11:29:31;5.80;;;3.97;;
4519;SDS011;2272;49.226;8.108;2023-12-20T11:32:00;10.03;;;5.53;;
4519;SDS011;2272;49.226;8.108;2023-12-20T11:34:27;7.27;;;4.30;;
4519;SDS011;2272;49.226;8.108;2023-12-20T11:36:57;8.43;;;4.60;;
4519;SDS011;2272;49.226;8.108;2023-12-20T11:39:25;9.03;;;4.93;;
4519;SDS011;2272;49.226;8.108;2023-12-20T11:41:54;6.07;;;3.60;;
4519;SDS011;2272;49.226;8.108;2023-12-20T11:44:22;4.70;;;2.67;;
4519;SDS011;2272;49.226;8.108;2023-12-20T11:46:50;13.53;;;3.90;;
4519;SDS011;2272;49.226;8.108;2023-12-20T11:49:17;19.77;;;3.57;;
4519;SDS011;2272;49.226;8.108;2023-12-20T11:51:43;3.17;;;2.50;;
4519;SDS011;2272;49.226;8.108;2023-12-20T11:54:10;10.97;;;3.80;;
4519;SDS011;2272;49.226;8.108;2023-12-20T11:56:37;8.60;;;3.60;;
4519;SDS011;2272;49.226;8.108;2023-12-20T11:59:04;12.83;;;3.40;;
4519;SDS011;2272;49.226;8.108;2023-12-20T12:01:31;8.53;;;3.20;;
4519;SDS011;2272;49.226;8.108;2023-12-20T12:04:06;7.90;;;3.60;;
4519;SDS011;2272;49.226;8.108;2023-12-20T12:06:32;11.37;;;3.13;;
4519;SDS011;2272;49.226;8.108;2023-12-20T12:08:59;8.90;;;3.83;;
4519;SDS011;2272;49.226;8.108;2023-12-20T12:11:26;9.57;;;4.27;;
4519;SDS011;2272;49.226;8.108;2023-12-20T12:13:53;10.73;;;4.43;;
4519;SDS011;2272;49.226;8.108;2023-12-20T12:16:20;5.30;;;2.83;;
4519;SDS011;2272;49.226;8.108;2023-12-20T12:18:54;16.43;;;6.00;;
4519;SDS011;2272;49.226;8.108;2023-12-20T12:21:23;9.07;;;4.17;;
4519;SDS011;2272;49.226;8.108;2023-12-20T12:23:50;13.17;;;6.40;;
4519;SDS011;2272;49.226;8.108;2023-12-20T12:26:18;8.23;;;4.40;;
4519;SDS011;2272;49.226;8.108;2023-12-20T12:28:44;9.30;;;5.60;;
4519;SDS011;2272;49.226;8.108;2023-12-20T12:31:13;12.93;;;4.10;;
4519;SDS011;2272;49.226;8.108;2023-12-20T12:33:41;9.43;;;3.20;;
4519;SDS011;2272;49.226;8.108;2023-12-20T12:36:08;6.20;;;3.47;;
4519;SDS011;2272;49.226;8.108;2023-12-20T12:38:37;6.40;;;4.00;;
4519;SDS011;2272;49.226;8.108;2023-12-20T12:41:04;8.53;;;3.03;;
4519;SDS011;2272;49.226;8.108;2023-12-20T12:43:32;11.10;;;3.20;;
4519;SDS011;2272;49.226;8.108;2023-12-20T12:45:58;14.73;;;3.77;;
4519;SDS011;2272;49.226;8.108;2023-12-20T12:48:25;21.33;;;4.60;;
4519;SDS011;2272;49.226;8.108;2023-12-20T12:50:53;11.20;;;5.00;;
4519;SDS011;2272;49.226;8.108;2023-12-20T12:53:23;13.00;;;3.53;;
4519;SDS011;2272;49.226;8.108;2023-12-20T12:55:52;13.27;;;6.33;;
4519;SDS011;2272;49.226;8.108;2023-12-20T12:58:19;25.40;;;11.73;;
4519;SDS011;2272;49.226;8.108;2023-12-20T13:00:47;14.80;;;4.40;;
4519;SDS011;2272;49.226;8.108;2023-12-20T13:03:13;11.20;;;6.70;;
4519;SDS011;2272;49.226;8.108;2023-12-20T13:05:40;6.20;;;3.93;;
4519;SDS011;2272;49.226;8.108;2023-12-20T13:08:07;3.77;;;3.00;;
4519;SDS011;2272;49.226;8.108;2023-12-20T13:10:34;7.83;;;3.50;;
4519;SDS011;2272;49.226;8.108;2023-12-20T13:13:02;11.50;;;4.20;;
4519;SDS011;2272;49.226;8.108;2023-12-20T13:15:30;9.43;;;4.17;;
4519;SDS011;2272;49.226;8.108;2023-12-20T13:17:56;8.20;;;2.80;;
4519;SDS011;2272;49.226;8.108;2023-12-20T13:20:23;16.57;;;4.00;;
4519;SDS011;2272;49.226;8.108;2023-12-20T13:22:50;11.43;;;4.37;;
4519;SDS011;2272;49.226;8.108;2023-12-20T13:25:16;6.33;;;2.77;;
4519;SDS011;2272;49.226;8.108;2023-12-20T13:27:43;5.60;;;2.83;;
4519;SDS011;2272;49.226;8.108;2023-12-20T13:30:12;5.00;;;3.50;;
4519;SDS011;2272;49.226;8.108;2023-12-20T13:32:39;9.27;;;5.17;;
4519;SDS011;2272;49.226;8.108;2023-12-20T13:35:06;9.63;;;3.30;;
4519;SDS011;2272;49.226;8.108;2023-12-20T13:37:34;8.87;;;5.20;;
4519;SDS011;2272;49.226;8.108;2023-12-20T13:40:01;6.90;;;2.90;;
4519;SDS011;2272;49.226;8.108;2023-12-20T13:42:29;7.23;;;4.13;;
4519;SDS011;2272;49.226;8.108;2023-12-20T13:44:56;10.80;;;4.13;;
4519;SDS011;2272;49.226;8.108;2023-12-20T13:47:24;5.53;;;4.30;;
4519;SDS011;2272;49.226;8.108;2023-12-20T13:49:50;8.77;;;4.07;;
4519;SDS011;2272;49.226;8.108;2023-12-20T13:52:17;8.43;;;4.10;;
4519;SDS011;2272;49.226;8.108;2023-12-20T13:54:44;8.20;;;4.53;;
4519;SDS011;2272;49.226;8.108;2023-12-20T13:57:11;12.13;;;4.40;;
4519;SDS011;2272;49.226;8.108;2023-12-20T13:59:38;10.83;;;4.07;;
4519;SDS011;2272;49.226;8.108;2023-12-20T14:02:04;7.60;;;4.00;;
4519;SDS011;2272;49.226;8.108;2023-12-20T14:04:32;12.00;;;4.07;;
4519;SDS011;2272;49.226;8.108;2023-12-20T14:06:59;11.83;;;3.83;;
4519;SDS011;2272;49.226;8.108;2023-12-20T14:09:26;8.40;;;4.40;;
4519;SDS011;2272;49.226;8.108;2023-12-20T14:11:53;5.13;;;4.50;;
4519;SDS011;2272;49.226;8.108;2023-12-20T14:14:20;19.30;;;5.33;;
4519;SDS011;2272;49.226;8.108;2023-12-20T14:16:47;24.93;;;4.97;;
4519;SDS011;2272;49.226;8.108;2023-12-20T14:19:13;10.60;;;4.30;;
4519;SDS011;2272;49.226;8.108;2023-12-20T14:21:41;5.90;;;3.83;;
4519;SDS011;2272;49.226;8.108;2023-12-20T14:24:10;7.97;;;4.10;;
4519;SDS011;2272;49.226;8.108;2023-12-20T14:26:39;15.30;;;4.93;;
4519;SDS011;2272;49.226;8.108;2023-12-20T14:29:06;11.23;;;5.53;;
4519;SDS011;2272;49.226;8.108;2023-12-20T14:31:34;13.20;;;4.10;;
4519;SDS011;2272;49.226;8.108;2023-12-20T14:34:02;6.83;;;4.20;;
4519;SDS011;2272;49.226;8.108;2023-12-20T14:36:29;10.57;;;4.23;;
4519;SDS011;2272;49.226;8.108;2023-12-20T14:38:57;9.40;;;4.87;;
4519;SDS011;2272;49.226;8.108;2023-12-20T14:41:25;8.37;;;4.10;;
4519;SDS011;2272;49.226;8.108;2023-12-20T14:43:51;8.37;;;4.20;;
4519;SDS011;2272;49.226;8.108;2023-12-20T14:46:18;12.30;;;4.83;;
4519;SDS011;2272;49.226;8.108;2023-12-20T14:48:45;6.30;;;4.13;;
4519;SDS011;2272;49.226;8.108;2023-12-20T14:51:13;7.90;;;3.23;;
4519;SDS011;2272;49.226;8.108;2023-12-20T14:53:40;11.40;;;3.40;;
4519;SDS011;2272;49.226;8.108;2023-12-20T14:56:08;15.77;;;5.60;;
4519;SDS011;2272;49.226;8.108;2023-12-20T14:58:35;18.30;;;3.90;;
4519;SDS011;2272;49.226;8.108;2023-12-20T15:01:02;18.70;;;5.23;;
4519;SDS011;2272;49.226;8.108;2023-12-20T15:03:29;14.23;;;5.23;;
4519;SDS011;2272;49.226;8.108;2023-12-20T15:05:55;6.20;;;4.80;;
4519;SDS011;2272;49.226;8.108;2023-12-20T15:08:23;15.93;;;4.10;;
4519;SDS011;2272;49.226;8.108;2023-12-20T15:10:50;6.57;;;4.13;;
4519;SDS011;2272;49.226;8.108;2023-12-20T15:13:18;7.37;;;4.50;;